Time;durP1;ratioP1;P1;durP2;ratioP2;P2;SDS_P1;SDS_P2;PMS_P1;PMS_P2;Temp;Humidity;BMP_temperature;BMP_pressure;BME280_temperature;BME280_humidity;BME280_pressure;Samples;Min_cycle;Max_cycle;Signal;HPM_P1;HPM_P2
2023/12/14 00:02:27;;;;;;;7.73;6.43;;;5.40;99.90;;;4.43;100.00;100048.50;5073666;28;20324;-73
2023/12/14 00:04:55;;;;;;;7.37;5.80;;;5.50;99.90;;;4.39;100.00;100052.41;5073651;28;20237;-73
2023/12/14 00:07:23;;;;;;;6.83;5.97;;;5.30;99.90;;;4.43;100.00;100059.13;5073785;28;20225;-73
2023/12/14 00:09:51;;;;;;;8.33;6.33;;;5.50;99.90;;;4.45;100.00;100056.34;5073935;28;20296;-73
2023/12/14 00:12:19;;;;;;;8.13;6.93;;;5.50;99.90;;;4.40;100.00;100061.19;5073721;28;20312;-73
2023/12/14 00:14:47;;;;;;;8.90;6.93;;;5.40;99.90;;;4.35;100.00;100060.78;5073814;28;20263;-73
2023/12/14 00:17:15;;;;;;;9.57;7.43;;;5.30;99.90;;;4.31;100.00;100069.97;5073453;28;20241;-73
2023/12/14 00:19:46;;;;;;;10.70;7.80;;;5.30;99.90;;;4.31;100.00;100062.88;5073424;28;20686;-73
2023/12/14 00:22:14;;;;;;;8.57;7.23;;;5.30;99.90;;;4.28;100.00;100070.25;5073597;28;20232;-73
2023/12/14 00:24:42;;;;;;;8.60;7.13;;;5.30;99.90;;;4.21;100.00;100072.63;5073656;28;20243;-73
2023/12/14 00:27:11;;;;;;;9.97;7.30;;;5.20;99.90;;;4.14;100.00;100084.72;5073283;28;20265;-73
2023/12/14 00:29:39;;;;;;;9.10;7.30;;;5.20;99.90;;;4.14;100.00;100090.03;5073632;28;20259;-73
2023/12/14 00:32:07;;;;;;;10.17;7.80;;;5.10;99.90;;;4.05;100.00;100096.13;5072606;28;20734;-73
2023/12/14 00:34:36;;;;;;;8.47;7.30;;;5.10;99.90;;;4.03;100.00;100093.63;5073246;28;20266;-73
2023/12/14 00:37:06;;;;;;;9.13;7.60;;;5.10;99.90;;;4.05;100.00;100112.00;5073521;28;20205;-73
2023/12/14 00:39:34;;;;;;;9.03;7.47;;;5.10;99.90;;;4.01;100.00;100106.13;5073500;28;20212;-73
2023/12/14 00:42:02;;;;;;;11.63;6.70;;;5.10;99.90;;;4.00;100.00;100114.22;5073335;28;20229;-73
2023/12/14 00:44:30;;;;;;;7.37;6.53;;;5.00;99.90;;;4.00;100.00;100119.53;5073469;28;20302;-73
2023/12/14 00:47:00;;;;;;;8.87;7.60;;;5.00;99.90;;;4.04;100.00;100124.41;5073413;28;20354;-73
2023/12/14 00:49:28;;;;;;;7.40;6.60;;;5.00;99.90;;;4.02;100.00;100120.22;5073349;28;20299;-73
2023/12/14 00:51:58;;;;;;;8.23;6.63;;;5.00;99.90;;;3.98;100.00;100126.75;5073362;28;20248;-73
2023/12/14 00:54:27;;;;;;;8.13;7.23;;;5.00;99.90;;;3.96;100.00;100124.25;5073371;28;20208;-73
2023/12/14 00:56:56;;;;;;;7.70;7.00;;;5.00;99.90;;;3.89;100.00;100133.69;5073350;28;20235;-73
2023/12/14 00:59:24;;;;;;;8.50;7.17;;;4.90;99.90;;;3.91;100.00;100130.91;5073309;28;20244;-73
2023/12/14 01:01:52;;;;;;;9.90;7.10;;;5.00;99.90;;;3.90;100.00;100145.13;5073352;28;20258;-73
2023/12/14 01:04:20;;;;;;;9.63;7.60;;;4.90;99.90;;;3.94;100.00;100154.47;5073230;28;20205;-73
2023/12/14 01:06:48;;;;;;;9.53;8.07;;;5.00;99.90;;;3.96;100.00;100168.44;5073169;28;20270;-73
2023/12/14 01:09:17;;;;;;;9.77;7.67;;;4.90;99.90;;;3.92;100.00;100174.97;5073190;28;20244;-73
2023/12/14 01:11:46;;;;;;;7.83;7.03;;;4.90;99.90;;;3.89;100.00;100169.94;5073076;28;20572;-73
2023/12/14 01:14:14;;;;;;;8.23;7.43;;;4.90;99.90;;;3.93;100.00;100179.28;5073169;28;20621;-73
2023/12/14 01:16:43;;;;;;;8.07;6.80;;;4.90;99.90;;;3.94;100.00;100183.59;5072799;28;20206;-73
2023/12/14 01:19:11;;;;;;;8.37;7.47;;;5.00;99.90;;;3.99;100.00;100187.56;5073102;28;20217;-73
2023/12/14 01:21:39;;;;;;;8.57;7.63;;;5.00;99.90;;;3.98;100.00;100192.97;5073067;28;20262;-73
2023/12/14 01:24:07;;;;;;;8.60;7.70;;;5.00;99.90;;;4.00;100.00;100185.75;5073008;28;20237;-73
2023/12/14 01:26:36;;;;;;;8.67;7.53;;;5.00;99.90;;;3.99;100.00;100197.31;5073109;28;20307;-72
2023/12/14 01:29:05;;;;;;;10.03;7.53;;;5.00;99.90;;;4.05;100.00;100202.91;5073019;28;20205;-72
2023/12/14 01:31:33;;;;;;;7.50;6.77;;;5.10;99.90;;;4.05;100.00;100204.72;5072634;28;20714;-72
2023/12/14 01:34:02;;;;;;;8.97;6.77;;;5.10;99.90;;;4.05;100.00;100205.56;5072413;28;20247;-72
2023/12/14 01:36:30;;;;;;;8.37;6.50;;;5.10;99.90;;;4.00;100.00;100206.94;5072575;28;20661;-72
2023/12/14 01:38:58;;;;;;;7.73;6.80;;;5.00;99.90;;;4.04;100.00;100208.34;5072934;28;20216;-72
2023/12/14 01:41:26;;;;;;;8.40;6.70;;;5.10;99.90;;;4.04;100.00;100211.00;5072926;28;20241;-72
2023/12/14 01:43:54;;;;;;;10.20;7.03;;;5.10;99.90;;;3.95;100.00;100220.56;5072991;28;20257;-72
2023/12/14 01:46:24;;;;;;;8.30;6.80;;;5.00;99.90;;;3.97;100.00;100215.16;5076642;28;20221;-72
2023/12/14 01:48:52;;;;;;;6.70;6.07;;;5.00;99.90;;;3.95;100.00;100217.06;5076347;28;20300;-72
2023/12/14 01:51:22;;;;;;;8.40;7.00;;;5.00;99.90;;;3.96;100.00;100226.69;5076229;28;20577;-72
2023/12/14 01:53:50;;;;;;;7.03;6.33;;;4.90;99.90;;;3.91;100.00;100229.72;5076464;28;20231;-72
2023/12/14 01:56:18;;;;;;;10.27;7.57;;;5.10;99.90;;;3.85;100.00;100232.91;5076472;28;20296;-72
2023/12/14 01:58:46;;;;;;;8.70;7.57;;;4.90;99.90;;;3.86;100.00;100239.03;5076138;28;20304;-72
2023/12/14 02:01:26;;;;;;;9.17;6.73;;;4.90;99.90;;;3.93;100.00;100245.50;5076371;28;20255;-72
2023/12/14 02:03:56;;;;;;;8.47;7.57;;;4.90;99.90;;;3.89;100.00;100244.06;5075904;28;20260;-72
2023/12/14 02:06:24;;;;;;;7.87;7.07;;;4.90;99.90;;;3.84;100.00;100248.91;5076135;28;20201;-72
2023/12/14 02:08:53;;;;;;;8.67;7.37;;;4.90;99.90;;;3.80;100.00;100258.09;5075861;28;20300;-72
2023/12/14 02:11:21;;;;;;;8.50;6.97;;;4.80;99.90;;;3.79;100.00;100253.78;5076170;28;20304;-72
2023/12/14 02:13:50;;;;;;;8.07;6.70;;;4.80;99.90;;;3.72;100.00;100257.91;5076068;28;20232;-72
2023/12/14 02:16:18;;;;;;;7.87;7.03;;;4.70;99.90;;;3.72;100.00;100263.19;5076041;28;20377;-72
2023/12/14 02:18:46;;;;;;;8.83;7.90;;;4.70;99.90;;;3.75;100.00;100266.44;5076022;28;20240;-72
2023/12/14 02:21:16;;;;;;;9.27;7.47;;;4.90;99.90;;;3.69;100.00;100264.28;5075574;28;20782;-72
2023/12/14 02:23:46;;;;;;;9.30;7.87;;;4.70;99.90;;;3.66;100.00;100272.50;5075874;28;20268;-72
2023/12/14 02:26:14;;;;;;;10.57;7.40;;;4.70;99.90;;;3.68;100.00;100275.00;5075910;28;20280;-72
2023/12/14 02:28:43;;;;;;;9.40;8.30;;;4.70;99.90;;;3.70;100.00;100273.91;5075768;28;20320;-72
2023/12/14 02:31:11;;;;;;;9.43;8.43;;;4.70;99.90;;;3.69;100.00;100274.03;5075415;28;20585;-72
2023/12/14 02:33:42;;;;;;;10.57;8.50;;;4.70;99.90;;;3.71;100.00;100272.94;5075314;28;20333;-72
2023/12/14 02:36:11;;;;;;;9.23;7.87;;;4.70;99.90;;;3.77;100.00;100282.16;5075649;28;20206;-72
2023/12/14 02:38:39;;;;;;;9.30;8.40;;;4.70;99.90;;;3.79;100.00;100285.53;5075630;28;20284;-72
2023/12/14 02:41:08;;;;;;;10.80;8.47;;;4.80;99.90;;;3.78;100.00;100282.06;5075608;28;20300;-72
2023/12/14 02:43:37;;;;;;;12.60;8.80;;;4.80;99.90;;;3.74;100.00;100288.56;5075451;28;20221;-72
2023/12/14 02:46:06;;;;;;;10.20;8.43;;;4.80;99.90;;;3.77;100.00;100292.75;5075487;28;20205;-72
2023/12/14 02:48:34;;;;;;;10.03;8.93;;;4.80;99.90;;;3.66;100.00;100290.19;5075042;28;20253;-72
2023/12/14 02:51:02;;;;;;;10.00;9.00;;;4.70;99.90;;;3.70;100.00;100297.72;5075388;28;20217;-72
2023/12/14 02:53:30;;;;;;;10.90;9.20;;;4.80;99.90;;;3.68;100.00;100304.97;5075262;28;20312;-72
2023/12/14 02:56:02;;;;;;;9.73;8.73;;;4.70;99.90;;;3.60;100.00;100303.94;5074881;28;20252;-72
2023/12/14 02:58:32;;;;;;;10.47;9.37;;;4.70;99.90;;;3.66;100.00;100308.72;5074960;28;20186;-72
2023/12/14 03:01:00;;;;;;;10.00;8.53;;;4.70;99.90;;;3.70;100.00;100308.31;5075168;28;20209;-72
2023/12/14 03:03:28;;;;;;;12.53;9.97;;;4.80;99.90;;;3.70;100.00;100320.72;5075039;28;20342;-72
2023/12/14 03:05:56;;;;;;;13.13;10.37;;;4.70;99.90;;;3.70;100.00;100323.38;5075102;28;20206;-72
2023/12/14 03:08:25;;;;;;;14.97;11.10;;;4.80;99.90;;;3.57;100.00;100319.09;5074959;28;20236;-72
2023/12/14 03:10:53;;;;;;;12.67;10.67;;;4.60;99.90;;;3.59;100.00;100321.63;5074953;28;20214;-72
2023/12/14 03:13:21;;;;;;;12.10;10.13;;;4.70;99.90;;;3.57;100.00;100318.22;5074534;28;20707;-72
2023/12/14 03:15:51;;;;;;;14.17;11.33;;;4.60;99.90;;;3.66;100.00;100327.25;5074871;28;20300;-72
2023/12/14 03:18:19;;;;;;;12.97;10.50;;;4.60;99.90;;;3.61;100.00;100330.25;5074497;28;20683;-72
2023/12/14 03:20:48;;;;;;;14.03;10.77;;;4.60;99.90;;;3.62;100.00;100326.66;5074709;28;20201;-72
2023/12/14 03:23:16;;;;;;;13.30;10.97;;;4.70;99.90;;;3.66;100.00;100328.09;5074659;28;20312;-72
2023/12/14 03:25:44;;;;;;;13.60;11.67;;;4.70;99.90;;;3.70;100.00;100333.97;5074638;28;20205;-72
2023/12/14 03:28:12;;;;;;;16.73;11.93;;;4.70;99.90;;;3.68;100.00;100331.44;5074543;28;20278;-72
2023/12/14 03:30:41;;;;;;;14.27;11.17;;;4.80;99.90;;;3.67;100.00;100336.84;5074542;28;20629;-72
2023/12/14 03:33:10;;;;;;;16.10;10.90;;;4.70;99.90;;;3.72;100.00;100337.31;5074207;28;20233;-72
2023/12/14 03:35:41;;;;;;;13.93;11.10;;;4.80;99.90;;;3.74;100.00;100344.16;5074479;28;20250;-72
2023/12/14 03:38:09;;;;;;;15.60;10.37;;;4.80;99.90;;;3.72;100.00;100342.63;5074497;28;20193;-72
2023/12/14 03:40:38;;;;;;;16.40;11.70;;;4.80;99.90;;;3.73;100.00;100349.59;5074126;28;20567;-72
2023/12/14 03:43:06;;;;;;;14.23;10.47;;;4.80;99.90;;;3.77;100.00;100353.66;5074377;28;20236;-72
2023/12/14 03:45:34;;;;;;;14.20;10.90;;;4.80;99.90;;;3.75;100.00;100358.25;5074328;28;20299;-72
2023/12/14 03:48:02;;;;;;;14.37;10.60;;;4.80;99.90;;;3.72;100.00;100361.16;5074154;28;20312;-72
2023/12/14 03:50:32;;;;;;;15.70;11.80;;;4.70;99.90;;;3.74;100.00;100356.56;5074168;28;20209;-72
2023/12/14 03:53:00;;;;;;;15.40;11.97;;;4.80;99.90;;;3.72;100.00;100363.78;5074056;28;20226;-72
2023/12/14 03:55:28;;;;;;;17.70;12.83;;;4.80;99.90;;;3.69;100.00;100370.19;5074126;28;20213;-72
2023/12/14 03:57:57;;;;;;;17.50;12.97;;;4.70;99.90;;;3.71;100.00;100364.75;5074083;28;20292;-72
2023/12/14 04:00:26;;;;;;;16.57;12.80;;;4.80;99.90;;;3.72;100.00;100355.84;5073721;28;20692;-72
2023/12/14 04:02:54;;;;;;;14.73;11.87;;;4.70;99.90;;;3.75;100.00;100374.13;5073916;28;20257;-72
2023/12/14 04:05:23;;;;;;;16.40;11.87;;;4.60;99.90;;;3.76;100.00;100370.53;5073912;28;20209;-72
2023/12/14 04:07:53;;;;;;;15.03;11.53;;;4.80;99.90;;;3.75;100.00;100382.91;5073078;28;20225;-72
2023/12/14 04:10:21;;;;;;;15.87;12.33;;;4.80;99.90;;;3.72;100.00;100391.13;5073518;28;20213;-72
2023/12/14 04:12:49;;;;;;;15.77;12.43;;;4.80;99.90;;;3.73;100.00;100391.97;5073795;28;20312;-72
2023/12/14 04:15:18;;;;;;;14.50;11.20;;;4.80;99.90;;;3.73;100.00;100397.25;5073565;28;20702;-73
2023/12/14 04:17:46;;;;;;;15.93;11.27;;;4.80;99.90;;;3.63;100.00;100399.78;5073494;28;20659;-73
2023/12/14 04:20:15;;;;;;;14.00;11.30;;;4.70;99.90;;;3.58;100.00;100416.06;5073680;28;20232;-72
2023/12/14 04:22:45;;;;;;;14.37;10.93;;;4.60;99.90;;;3.54;100.00;100406.69;5073635;28;20264;-72
2023/12/14 04:25:14;;;;;;;14.33;11.33;;;4.60;99.90;;;3.58;100.00;100417.84;5073683;28;20276;-72
2023/12/14 04:27:42;;;;;;;14.80;11.60;;;4.60;99.90;;;3.57;100.00;100426.75;5073549;28;20205;-72
2023/12/14 04:30:11;;;;;;;16.37;11.90;;;4.60;99.90;;;3.60;100.00;100433.63;5073617;28;20296;-72
2023/12/14 04:32:40;;;;;;;15.50;11.40;;;4.60;99.90;;;3.59;100.00;100440.72;5073261;28;20233;-72
2023/12/14 04:35:09;;;;;;;15.10;11.00;;;4.60;99.90;;;3.62;100.00;100448.41;5073278;28;20689;-72
2023/12/14 04:37:37;;;;;;;13.93;11.23;;;4.70;99.90;;;3.55;100.00;100444.59;5073543;28;20205;-72
2023/12/14 04:40:08;;;;;;;12.97;10.60;;;4.60;99.90;;;3.55;100.00;100448.06;5073204;28;20620;-72
2023/12/14 04:42:37;;;;;;;14.27;10.57;;;4.60;99.90;;;3.56;100.00;100455.03;5073397;28;20236;-72
2023/12/14 04:45:08;;;;;;;14.23;11.33;;;4.60;99.90;;;3.54;100.00;100456.97;5073454;28;20301;-72
2023/12/14 04:47:37;;;;;;;16.83;11.73;;;4.50;99.90;;;3.52;100.00;100458.91;5073467;28;20269;-72
2023/12/14 04:50:06;;;;;;;13.37;11.27;;;4.50;99.90;;;3.49;100.00;100453.84;5073532;28;20205;-72
2023/12/14 04:52:34;;;;;;;12.87;10.53;;;4.50;99.90;;;3.46;100.00;100464.66;5073245;28;20256;-72
2023/12/14 04:55:03;;;;;;;12.73;10.53;;;4.60;99.90;;;3.51;100.00;100466.97;5073086;28;20235;-72
2023/12/14 04:57:31;;;;;;;14.40;11.30;;;4.50;99.90;;;3.52;100.00;100474.78;5073356;28;20304;-72
2023/12/14 05:00:00;;;;;;;13.80;10.63;;;4.60;99.90;;;3.54;100.00;100472.84;5073300;28;20236;-72
2023/12/14 05:02:29;;;;;;;14.80;10.27;;;4.60;99.90;;;3.55;100.00;100481.63;5073228;28;20232;-72
2023/12/14 05:04:57;;;;;;;15.20;10.47;;;4.70;99.90;;;3.58;100.00;100484.88;5072954;28;20655;-72
2023/12/14 05:07:25;;;;;;;12.93;10.57;;;4.60;99.90;;;3.58;100.00;100487.53;5072846;28;20267;-73
2023/12/14 05:09:53;;;;;;;13.37;11.00;;;4.60;99.90;;;3.64;100.00;100488.00;5073165;28;20279;-73
2023/12/14 05:12:21;;;;;;;12.37;9.93;;;4.70;99.90;;;3.60;100.00;100486.56;5072818;28;20225;-73
2023/12/14 05:14:49;;;;;;;13.13;10.40;;;4.70;99.90;;;3.62;100.00;100496.06;5073226;28;20237;-73
2023/12/14 05:17:19;;;;;;;11.23;9.83;;;4.60;99.90;;;3.57;100.00;100492.94;5073102;28;20205;-73
2023/12/14 05:19:47;;;;;;;11.33;9.30;;;4.70;99.90;;;3.53;100.00;100505.56;5076407;28;20204;-73
2023/12/14 05:22:15;;;;;;;11.53;9.67;;;4.60;99.90;;;3.53;100.00;100510.84;5077052;28;20278;-73
2023/12/14 05:24:46;;;;;;;11.80;8.93;;;4.60;99.90;;;3.58;100.00;100511.34;5077028;28;20293;-73
2023/12/14 05:27:14;;;;;;;11.47;9.40;;;4.60;99.90;;;3.57;100.00;100509.66;5077017;28;20285;-73
2023/12/14 05:29:42;;;;;;;11.40;9.13;;;4.60;99.90;;;3.61;100.00;100514.72;5076835;28;20261;-73
2023/12/14 05:32:10;;;;;;;10.70;9.60;;;4.70;99.90;;;3.57;100.00;100520.25;5076643;28;20229;-73
2023/12/14 05:34:40;;;;;;;10.07;8.83;;;4.60;99.90;;;3.56;100.00;100517.75;5076802;28;20186;-73
2023/12/14 05:37:08;;;;;;;11.43;8.83;;;4.60;99.90;;;3.57;100.00;100525.53;5076846;28;20217;-72
2023/12/14 05:39:36;;;;;;;11.93;9.30;;;4.60;99.90;;;3.56;100.00;100538.91;5076825;28;20296;-72
2023/12/14 05:42:05;;;;;;;12.03;9.30;;;4.60;99.90;;;3.58;100.00;100536.97;5078995;28;20261;-74
2023/12/14 05:44:33;;;;;;;11.70;9.20;;;4.40;99.90;;;3.57;100.00;100533.47;5076766;28;20292;-72
2023/12/14 05:47:01;;;;;;;10.47;8.97;;;4.50;99.90;;;3.50;100.00;100545.50;5076584;28;20202;-72
2023/12/14 05:49:30;;;;;;;11.67;8.67;;;4.40;99.90;;;3.52;100.00;100538.31;5076166;28;20673;-72
2023/12/14 05:52:01;;;;;;;11.10;9.20;;;4.40;99.90;;;3.46;100.00;100543.22;5076420;28;20240;-72
2023/12/14 05:54:29;;;;;;;13.33;9.67;;;4.40;99.90;;;3.43;100.00;100544.31;5076172;28;20652;-73
2023/12/14 05:56:57;;;;;;;11.60;8.87;;;4.40;99.90;;;3.45;100.00;100539.75;5076417;28;20236;-73
2023/12/14 05:59:26;;;;;;;9.70;8.70;;;4.40;99.90;;;3.46;100.00;100544.06;5076328;28;20202;-73
2023/12/14 06:01:58;;;;;;;9.70;8.53;;;4.40;99.90;;;3.49;100.00;100549.13;5075945;28;20622;-73
2023/12/14 06:04:28;;;;;;;10.77;9.40;;;4.40;99.90;;;3.49;100.00;100561.53;5076355;28;20189;-72
2023/12/14 06:06:56;;;;;;;10.60;9.30;;;4.40;99.90;;;3.51;100.00;100567.53;5076198;28;20208;-72
2023/12/14 06:09:33;;;;;;;13.50;9.70;;;4.40;99.90;;;3.48;100.00;100573.06;5075773;28;20729;-72
2023/12/14 06:12:02;;;;;;;12.20;9.93;;;4.40;99.90;;;3.47;100.00;100574.03;5076143;28;20237;-72
2023/12/14 06:14:31;;;;;;;11.83;9.60;;;4.40;99.90;;;3.47;100.00;100582.81;5075919;28;20677;-72
2023/12/14 06:16:59;;;;;;;10.67;9.17;;;4.40;99.90;;;3.46;100.00;100586.41;5076094;28;20207;-72
2023/12/14 06:19:27;;;;;;;12.63;9.83;;;4.40;99.90;;;3.49;100.00;100586.16;5076061;28;20202;-72
2023/12/14 06:21:56;;;;;;;12.63;9.23;;;4.40;99.90;;;3.51;100.00;100589.56;5075605;28;20241;-73
2023/12/14 06:24:24;;;;;;;11.93;9.70;;;4.40;99.90;;;3.47;100.00;100588.09;5076508;28;20216;-72
2023/12/14 06:26:53;;;;;;;10.90;9.20;;;4.40;99.90;;;3.46;100.00;100580.25;5075907;28;20284;-72
2023/12/14 06:29:21;;;;;;;12.57;9.80;;;4.40;99.90;;;3.49;100.00;100590.63;5075581;28;20316;-72
2023/12/14 06:31:50;;;;;;;11.73;9.13;;;4.40;99.90;;;3.49;100.00;100596.75;5075135;28;20259;-72
2023/12/14 06:34:19;;;;;;;11.13;9.73;;;4.40;99.90;;;3.47;100.00;100590.75;5075425;28;20237;-72
2023/12/14 06:36:47;;;;;;;12.43;10.10;;;4.40;99.90;;;3.48;100.00;100584.50;5075653;28;20210;-72
2023/12/14 06:39:16;;;;;;;12.10;9.47;;;4.40;99.90;;;3.42;100.00;100592.91;5075686;28;20289;-72
2023/12/14 06:41:47;;;;;;;11.93;9.87;;;4.40;99.90;;;3.45;100.00;100605.91;5075645;28;20186;-73
2023/12/14 06:44:17;;;;;;;12.90;9.97;;;4.30;99.90;;;3.44;100.00;100614.81;5075266;28;20659;-72
2023/12/14 06:46:45;;;;;;;12.40;9.70;;;4.50;99.90;;;3.45;100.00;100610.34;5075640;28;20296;-72
2023/12/14 06:49:12;;;;;;;14.30;9.60;;;4.40;99.90;;;3.44;100.00;100612.16;5076321;28;20225;-72
2023/12/14 06:51:40;;;;;;;12.37;9.63;;;4.30;99.90;;;3.46;100.00;100612.88;5076256;28;20550;-72
2023/12/14 06:54:08;;;;;;;10.77;9.43;;;4.40;99.90;;;3.47;100.00;100622.50;5075106;28;20664;-72
2023/12/14 06:56:38;;;;;;;13.93;9.43;;;4.70;99.90;;;3.46;100.00;100623.47;5075385;28;20240;-72
2023/12/14 06:59:08;;;;;;;10.87;9.23;;;4.40;99.90;;;3.46;100.00;100622.59;5074994;28;20205;-72
2023/12/14 07:01:37;;;;;;;12.07;9.20;;;4.30;99.90;;;3.45;100.00;100621.78;5075015;28;20565;-72
2023/12/14 07:04:07;;;;;;;11.10;9.20;;;4.40;99.90;;;3.47;100.00;100626.94;5075164;28;20225;-72
2023/12/14 07:06:36;;;;;;;12.40;9.67;;;4.40;99.90;;;3.49;100.00;100635.63;5075089;28;20205;-72
2023/12/14 07:09:05;;;;;;;11.83;9.10;;;4.40;99.90;;;3.46;100.00;100639.34;5074842;28;20331;-72
2023/12/14 07:11:33;;;;;;;12.43;9.67;;;4.40;99.90;;;3.50;100.00;100654.03;5075020;28;20237;-72
2023/12/14 07:14:01;;;;;;;11.63;9.97;;;4.40;99.90;;;3.52;100.00;100654.78;5074670;28;20279;-72
2023/12/14 07:16:29;;;;;;;14.53;9.47;;;4.40;99.90;;;3.51;100.00;100657.53;5074967;28;20263;-72
2023/12/14 07:18:59;;;;;;;10.57;8.93;;;4.40;99.90;;;3.52;100.00;100669.81;5074872;28;20628;-72
2023/12/14 07:21:27;;;;;;;13.30;9.50;;;4.40;99.90;;;3.49;100.00;100670.84;5074620;28;20210;-72
2023/12/14 07:23:55;;;;;;;10.60;9.17;;;4.40;99.90;;;3.51;100.00;100674.25;5074738;28;20268;-72
2023/12/14 07:26:23;;;;;;;11.33;9.07;;;4.40;99.90;;;3.52;100.00;100683.88;5074744;28;20201;-72
2023/12/14 07:28:55;;;;;;;11.10;8.80;;;4.40;99.90;;;3.49;100.00;100686.75;5074645;28;20205;-72
2023/12/14 07:31:23;;;;;;;10.53;8.37;;;4.40;99.90;;;3.51;100.00;100681.34;5074634;28;20212;-72
2023/12/14 07:33:51;;;;;;;11.00;8.93;;;4.40;99.90;;;3.49;100.00;100697.31;5073992;28;20233;-72
2023/12/14 07:36:22;;;;;;;11.70;9.10;;;4.40;99.90;;;3.49;100.00;100702.63;5074543;28;20210;-72
2023/12/14 07:38:50;;;;;;;11.73;9.33;;;4.40;99.90;;;3.49;100.00;100713.22;5074464;28;20247;-72
2023/12/14 07:41:26;;;;;;;13.03;9.83;;;4.40;99.90;;;3.48;100.00;100708.03;5074487;28;20224;-72
2023/12/14 07:43:54;;;;;;;11.27;9.30;;;4.40;99.90;;;3.52;100.00;100717.44;5074009;28;20231;-72
2023/12/14 07:46:23;;;;;;;10.40;9.30;;;4.40;99.90;;;3.48;100.00;100716.84;5074378;28;20206;-72
2023/12/14 07:48:51;;;;;;;10.30;9.10;;;4.40;99.90;;;3.47;100.00;100723.09;5074300;28;20269;-72
2023/12/14 07:51:20;;;;;;;11.80;10.00;;;4.40;99.90;;;3.52;100.00;100734.19;5074138;28;20286;-72
2023/12/14 07:53:49;;;;;;;10.07;8.70;;;4.40;99.90;;;3.50;100.00;100746.66;5073786;28;20718;-72
2023/12/14 07:56:17;;;;;;;8.87;7.97;;;4.40;99.90;;;3.44;100.00;100752.44;5074133;28;20295;-72
2023/12/14 07:58:45;;;;;;;9.53;8.37;;;4.40;99.90;;;3.46;100.00;100750.50;5074073;28;20251;-72
2023/12/14 08:01:13;;;;;;;9.37;8.10;;;4.40;99.90;;;3.49;100.00;100760.84;5074041;28;20202;-72
2023/12/14 08:03:41;;;;;;;9.30;8.13;;;4.40;99.90;;;3.45;100.00;100754.13;5073870;28;20253;-72
2023/12/14 08:06:10;;;;;;;9.70;7.70;;;4.40;99.90;;;3.46;100.00;100768.16;5073994;28;20262;-72
2023/12/14 08:08:42;;;;;;;8.70;7.07;;;4.40;99.90;;;3.39;100.00;100775.72;5073993;28;20198;-72
2023/12/14 08:11:10;;;;;;;8.43;6.93;;;4.30;99.90;;;3.43;100.00;100771.91;5073759;28;20233;-72
2023/12/14 08:13:38;;;;;;;8.80;7.37;;;4.30;99.90;;;3.39;100.00;100778.38;5073750;28;20236;-72
2023/12/14 08:16:11;;;;;;;8.13;6.93;;;4.30;99.90;;;3.44;100.00;100780.69;5073816;28;20205;-72
2023/12/14 08:18:40;;;;;;;9.03;6.67;;;4.40;99.90;;;3.41;100.00;100789.72;5073516;28;20709;-72
2023/12/14 08:21:08;;;;;;;7.43;6.63;;;4.30;99.90;;;3.42;100.00;100793.19;5073459;28;20572;-72
2023/12/14 08:23:41;;;;;;;7.83;6.80;;;4.30;99.90;;;3.39;100.00;100799.53;5073382;28;20225;-72
2023/12/14 08:26:12;;;;;;;8.07;6.53;;;4.30;99.90;;;3.36;100.00;100797.13;5073704;28;20209;-72
2023/12/14 08:28:41;;;;;;;7.00;6.30;;;4.30;99.90;;;3.34;100.00;100799.06;5073737;28;20212;-72
2023/12/14 08:31:11;;;;;;;7.87;6.30;;;4.30;99.90;;;3.40;100.00;100798.59;5073355;28;20678;-74
2023/12/14 08:33:42;;;;;;;5.80;4.97;;;4.30;99.90;;;3.36;100.00;100813.00;5073627;28;20287;-73
2023/12/14 08:36:17;;;;;;;5.63;4.97;;;4.30;99.90;;;3.38;100.00;100813.75;5073899;28;20281;-73
2023/12/14 08:38:47;;;;;;;4.93;3.83;;;4.30;99.90;;;3.37;100.00;100821.78;5073612;28;20186;-73
2023/12/14 08:41:15;;;;;;;5.33;4.40;;;4.30;99.90;;;3.35;100.00;100827.22;5073823;28;20227;-73
2023/12/14 08:43:44;;;;;;;5.97;4.03;;;4.30;99.90;;;3.37;100.00;100829.72;5073654;28;20305;-73
2023/12/14 08:46:13;;;;;;;4.43;4.03;;;4.30;99.90;;;3.38;100.00;100837.56;5073457;28;20205;-73
2023/12/14 08:48:41;;;;;;;4.40;4.00;;;4.30;99.90;;;3.37;100.00;100835.88;5073200;28;20656;-73
2023/12/14 08:51:10;;;;;;;5.03;4.53;;;4.30;99.90;;;3.42;100.00;100843.50;5073448;28;20239;-73
2023/12/14 08:53:38;;;;;;;4.63;4.13;;;4.30;99.90;;;3.42;100.00;100846.97;5073015;28;20312;-73
2023/12/14 08:56:10;;;;;;;5.37;4.03;;;4.40;99.90;;;3.41;100.00;100841.78;5073488;28;20252;-73
2023/12/14 08:58:38;;;;;;;5.90;4.20;;;4.30;99.90;;;3.42;100.00;100844.34;5073486;28;20228;-73
2023/12/14 09:01:06;;;;;;;4.90;4.30;;;4.30;99.90;;;3.42;100.00;100865.50;5073355;28;20292;-73
2023/12/14 09:03:35;;;;;;;5.10;4.20;;;4.30;99.90;;;3.44;100.00;100860.94;5073180;28;20772;-73
2023/12/14 09:06:05;;;;;;;4.70;4.17;;;4.40;99.90;;;3.40;100.00;100872.69;5073543;28;20231;-73
2023/12/14 09:08:33;;;;;;;5.10;4.00;;;4.40;99.90;;;3.42;100.00;100876.09;5073062;28;20210;-73
2023/12/14 09:11:02;;;;;;;5.27;4.40;;;4.40;99.90;;;3.44;100.00;100876.81;5073645;28;20260;-73
2023/12/14 09:13:31;;;;;;;5.67;4.27;;;4.40;99.90;;;3.45;100.00;100878.50;5072967;28;20592;-73
2023/12/14 09:16:01;;;;;;;4.47;4.07;;;4.40;99.90;;;3.46;100.00;100893.41;5073510;28;20190;-72
2023/12/14 09:18:30;;;;;;;5.87;3.97;;;4.40;99.90;;;3.49;100.00;100901.13;5073195;28;20651;-72
2023/12/14 09:20:58;;;;;;;4.27;3.60;;;4.50;99.90;;;3.50;100.00;100905.47;5073488;28;20213;-72
2023/12/14 09:23:26;;;;;;;5.63;4.10;;;4.40;99.90;;;3.45;100.00;100894.41;5072864;28;20800;-72
2023/12/14 09:25:55;;;;;;;5.57;4.77;;;4.40;99.90;;;3.46;100.00;100906.66;5073335;28;20212;-72
2023/12/14 09:28:24;;;;;;;6.40;5.10;;;4.40;99.90;;;3.48;100.00;100909.19;5073464;28;20202;-72
2023/12/14 09:30:53;;;;;;;6.10;4.83;;;4.40;99.90;;;3.47;100.00;100911.00;5073239;28;20229;-72
2023/12/14 09:33:22;;;;;;;5.70;4.30;;;4.40;99.90;;;3.49;100.00;100916.19;5073012;28;20237;-72
2023/12/14 09:35:50;;;;;;;6.90;4.20;;;4.40;99.90;;;3.49;100.00;100909.06;5072712;28;20659;-72
2023/12/14 09:38:19;;;;;;;4.40;4.00;;;4.40;99.90;;;3.48;100.00;100923.28;5073223;28;20205;-72
2023/12/14 09:40:47;;;;;;;5.40;4.60;;;4.40;99.90;;;3.49;100.00;100930.25;5073104;28;20202;-72
2023/12/14 09:43:15;;;;;;;6.07;4.30;;;4.40;99.90;;;3.48;100.00;100925.09;5072977;28;20275;-72
2023/12/14 09:45:46;;;;;;;5.20;4.20;;;4.40;99.90;;;3.47;100.00;100931.31;5073034;28;20237;-72
2023/12/14 09:48:17;;;;;;;5.63;4.50;;;4.40;99.90;;;3.47;100.00;100913.66;5073051;28;20225;-72
2023/12/14 09:50:47;;;;;;;6.03;4.63;;;4.40;99.90;;;3.49;100.00;100922.31;5072938;28;20220;-72
2023/12/14 09:53:15;;;;;;;6.50;5.27;;;4.40;99.90;;;3.50;100.00;100931.94;5072558;28;20316;-72
2023/12/14 09:55:44;;;;;;;5.27;4.77;;;4.40;99.90;;;3.45;100.00;100931.44;5072956;28;20202;-72
2023/12/14 09:58:12;;;;;;;5.83;4.83;;;4.40;99.90;;;3.50;100.00;100937.25;5072881;28;20205;-72
2023/12/14 10:00:42;;;;;;;6.43;4.97;;;4.40;99.90;;;3.48;100.00;100939.16;5072501;28;20637;-72
2023/12/14 10:03:31;;;;;;;6.60;4.90;;;4.40;99.90;;;3.49;100.00;100935.53;5072746;28;20222;-72
2023/12/14 10:06:01;;;;;;;6.23;5.43;;;4.40;99.90;;;3.52;100.00;100945.94;5074541;28;20269;-71
2023/12/14 10:08:30;;;;;;;5.53;4.50;;;4.40;99.90;;;3.52;100.00;100942.44;5076457;28;20190;-71
2023/12/14 10:10:59;;;;;;;7.70;5.07;;;4.40;99.90;;;3.56;100.00;100957.16;5076327;28;20272;-73
2023/12/14 10:13:38;;;;;;;6.20;4.90;;;4.50;99.90;;;3.56;100.00;100955.31;5076266;28;20723;-72
2023/12/14 10:16:07;;;;;;;6.53;5.33;;;4.50;99.90;;;3.58;100.00;100950.78;5076647;28;20236;-72
2023/12/14 10:18:38;;;;;;;5.83;5.13;;;4.50;99.90;;;3.54;100.00;100959.91;5076193;28;20233;-72
2023/12/14 10:21:08;;;;;;;6.53;5.07;;;4.50;99.90;;;3.56;100.00;100954.50;5076161;28;20190;-72
2023/12/14 10:23:36;;;;;;;8.87;5.43;;;4.50;99.90;;;3.58;100.00;100969.31;5075987;28;20221;-72